createdAt,value
2022-08-16T00:01:23.768Z,4.65
2022-08-16T00:03:52.366Z,4.00
2022-08-16T00:06:19.006Z,5.30
2022-08-16T00:08:46.112Z,4.47
2022-08-16T00:11:15.259Z,4.80
2022-08-16T00:13:43.152Z,4.88
2022-08-16T00:17:00.777Z,5.22
2022-08-16T00:19:06.470Z,5.60
2022-08-16T00:21:33.819Z,6.05
2022-08-16T00:24:00.595Z,5.90
2022-08-16T00:26:35.876Z,6.18
2022-08-16T00:29:05.463Z,6.10
2022-08-16T00:31:59.259Z,5.97
2022-08-16T00:34:22.787Z,6.63
2022-08-16T00:37:09.947Z,5.97
2022-08-16T00:39:36.636Z,6.53
2022-08-16T00:42:05.782Z,5.55
2022-08-16T00:44:38.606Z,5.60
2022-08-16T00:47:08.866Z,6.53
2022-08-16T00:49:39.338Z,6.22
2022-08-16T00:52:30.402Z,5.72
2022-08-16T00:54:59.476Z,6.38
2022-08-16T00:57:27.593Z,5.72
2022-08-16T01:00:20.187Z,6.55
2022-08-16T01:02:51.019Z,5.32
2022-08-16T01:05:19.404Z,5.85
2022-08-16T01:07:53.306Z,5.13
2022-08-16T01:10:32.062Z,5.22
2022-08-16T01:13:05.523Z,5.28
2022-08-16T01:15:35.944Z,5.20
2022-08-16T01:18:04.830Z,5.20
2022-08-16T01:20:37.905Z,4.63
2022-08-16T01:23:04.539Z,5.47
2022-08-16T01:25:41.818Z,5.72
2022-08-16T01:28:20.151Z,5.32
2022-08-16T01:30:51.159Z,5.30
2022-08-16T01:33:19.152Z,5.20
2022-08-16T01:35:52.323Z,5.60
2022-08-16T01:38:29.423Z,4.60
2022-08-16T01:41:01.950Z,4.97
2022-08-16T01:43:31.067Z,4.97
2022-08-16T01:46:00.504Z,4.82
2022-08-16T01:48:48.527Z,5.03
2022-08-16T01:51:18.696Z,4.88
2022-08-16T01:53:54.570Z,4.47
2022-08-16T01:56:25.129Z,4.93
2022-08-16T01:58:55.178Z,4.55
2022-08-16T02:01:22.583Z,4.70
2022-08-16T02:03:51.955Z,5.13
2022-08-16T02:06:33.614Z,4.93
2022-08-16T02:09:01.350Z,4.95
2022-08-16T02:11:48.800Z,4.90
2022-08-16T02:14:18.414Z,4.85
2022-08-16T02:16:48.835Z,4.75
2022-08-16T02:19:17.553Z,4.78
2022-08-16T02:22:07.651Z,4.30
2022-08-16T02:24:41.104Z,5.22
2022-08-16T02:29:35.107Z,4.47
2022-08-16T02:32:49.192Z,4.70
2022-08-16T02:34:50.179Z,4.72
2022-08-16T02:37:20.975Z,4.80
2022-08-16T02:39:47.765Z,4.93
2022-08-16T02:42:20.982Z,4.72
2022-08-16T02:44:47.700Z,4.50
2022-08-16T02:47:24.915Z,4.43
2022-08-16T02:49:59.269Z,4.18
2022-08-16T02:52:39.423Z,6.05
2022-08-16T02:55:11.739Z,5.03
2022-08-16T02:57:54.087Z,4.53
2022-08-16T03:00:33.648Z,4.82
2022-08-16T03:03:01.735Z,4.60
2022-08-16T03:05:31.762Z,4.78
2022-08-16T03:08:00.254Z,4.43
2022-08-16T03:10:33.549Z,4.18
2022-08-16T03:13:01.229Z,4.63
2022-08-16T03:15:28.430Z,4.22
2022-08-16T03:17:55.788Z,5.07
2022-08-16T03:20:31.940Z,4.38
2022-08-16T03:22:59.656Z,4.72
2022-08-16T03:25:41.169Z,5.18
2022-08-16T03:28:11.645Z,5.22
2022-08-16T03:30:38.809Z,5.78
2022-08-16T03:33:05.768Z,5.57
2022-08-16T03:35:36.388Z,5.40
2022-08-16T03:38:34.767Z,5.88
2022-08-16T03:40:56.800Z,5.57
2022-08-16T03:43:24.747Z,5.65
2022-08-16T03:46:11.739Z,5.75
2022-08-16T03:48:41.290Z,6.15
2022-08-16T03:51:12.164Z,5.82
2022-08-16T03:53:40.114Z,6.65
2022-08-16T03:56:19.571Z,6.65
2022-08-16T03:58:48.398Z,5.18
2022-08-16T04:01:17.614Z,5.70
2022-08-16T04:03:44.381Z,6.65
2022-08-16T04:06:11.223Z,5.65
2022-08-16T04:08:39.676Z,5.65
2022-08-16T04:11:06.724Z,5.82
2022-08-16T04:14:01.492Z,5.70
2022-08-16T04:16:26.665Z,5.60
2022-08-16T04:19:01.228Z,5.50
2022-08-16T04:21:34.405Z,5.55
2022-08-16T04:24:02.850Z,6.20
2022-08-16T04:26:32.152Z,6.60
2022-08-16T04:29:16.590Z,6.05
2022-08-16T04:31:56.774Z,5.80
2022-08-16T04:34:28.105Z,6.70
2022-08-16T04:36:56.688Z,7.45
2022-08-16T04:39:24.432Z,6.07
2022-08-16T04:42:11.195Z,6.30
2022-08-16T04:44:54.065Z,6.22
2022-08-16T04:47:31.706Z,6.60
2022-08-16T04:50:00.959Z,6.95
2022-08-16T04:52:34.130Z,6.65
2022-08-16T04:55:04.768Z,6.78
2022-08-16T04:57:31.450Z,6.72
2022-08-16T04:59:58.626Z,6.57
2022-08-16T05:02:45.822Z,6.18
2022-08-16T05:05:17.829Z,6.20
2022-08-16T05:07:57.935Z,6.47
2022-08-16T05:10:25.970Z,6.25
2022-08-16T05:12:53.328Z,5.88
2022-08-16T05:15:20.433Z,6.15
2022-08-16T05:17:48.959Z,6.03
2022-08-16T05:20:39.370Z,5.18
2022-08-16T05:23:15.094Z,5.57
2022-08-16T05:25:47.990Z,6.00
2022-08-16T05:28:16.396Z,5.55
2022-08-16T05:30:43.630Z,6.20
2022-08-16T05:33:16.862Z,5.70
2022-08-16T05:35:55.712Z,5.63
2022-08-16T05:38:33.181Z,5.50
2022-08-16T05:41:06.642Z,5.47
2022-08-16T05:43:43.702Z,4.90
2022-08-16T05:46:29.952Z,6.00
2022-08-16T05:49:05.416Z,5.28
2022-08-16T05:51:38.332Z,5.55
2022-08-16T05:54:11.426Z,5.80
2022-08-16T05:56:40.028Z,5.90
2022-08-16T05:59:08.082Z,4.82
2022-08-16T06:01:37.866Z,5.07
2022-08-16T06:04:12.703Z,5.43
2022-08-16T06:06:41.786Z,5.05
2022-08-16T06:09:22.548Z,5.25
2022-08-16T06:11:49.650Z,5.38
2022-08-16T06:14:17.607Z,5.82
2022-08-16T06:16:44.370Z,5.63
2022-08-16T06:19:17.347Z,5.13
2022-08-16T06:21:44.330Z,5.40
2022-08-16T06:24:54.816Z,4.63
2022-08-16T06:26:58.458Z,5.25
2022-08-16T06:29:25.582Z,5.05
2022-08-16T06:31:53.566Z,5.47
2022-08-16T06:34:56.149Z,4.85
2022-08-16T06:37:07.674Z,4.70
2022-08-16T06:39:34.744Z,4.82
2022-08-16T06:42:18.314Z,5.15
2022-08-16T06:44:45.723Z,5.28
2022-08-16T06:47:13.476Z,4.10
2022-08-16T06:49:53.058Z,4.72
2022-08-16T06:52:58.438Z,5.70
2022-08-16T06:55:13.113Z,4.85
2022-08-16T06:57:41.129Z,5.30
2022-08-16T07:00:24.391Z,5.05
2022-08-16T07:02:53.613Z,4.93
2022-08-16T07:05:26.989Z,4.32
2022-08-16T07:07:54.076Z,4.63
2022-08-16T07:10:25.710Z,5.43
2022-08-16T07:13:03.407Z,4.35
2022-08-16T07:15:31.708Z,4.95
2022-08-16T07:17:59.866Z,4.43
2022-08-16T07:20:35.595Z,5.20
2022-08-16T07:23:13.915Z,4.65
2022-08-16T07:25:41.174Z,4.68
2022-08-16T07:28:11.835Z,5.07
2022-08-16T07:30:46.396Z,3.95
2022-08-16T07:33:16.255Z,4.93
2022-08-16T07:35:49.357Z,4.05
2022-08-16T07:38:19.599Z,4.45
2022-08-16T07:41:00.143Z,4.45
2022-08-16T07:43:29.033Z,4.13
2022-08-16T07:45:56.445Z,4.43
2022-08-16T07:48:24.198Z,4.10
2022-08-16T07:50:55.501Z,3.90
2022-08-16T07:53:28.998Z,3.90
2022-08-16T07:55:56.729Z,3.90
2022-08-16T07:58:34.965Z,4.00
2022-08-16T08:01:10.022Z,4.00
2022-08-16T08:03:39.286Z,4.00
2022-08-16T08:06:10.413Z,4.30
2022-08-16T08:08:51.380Z,4.25
2022-08-16T08:11:21.421Z,4.00
2022-08-16T08:13:51.402Z,3.60
2022-08-16T08:18:50.141Z,3.08
2022-08-16T08:21:19.327Z,4.20
2022-08-16T08:23:53.540Z,3.70
2022-08-16T08:26:22.061Z,3.90
2022-08-16T08:28:51.082Z,3.78
2022-08-16T08:31:18.652Z,3.90
2022-08-16T08:33:47.513Z,3.22
2022-08-16T08:36:25.640Z,3.58
2022-08-16T08:39:00.338Z,3.78
2022-08-16T08:41:29.302Z,3.70
2022-08-16T08:43:58.680Z,3.42
2022-08-16T08:46:25.837Z,3.25
2022-08-16T08:48:59.397Z,3.75
2022-08-16T08:51:27.717Z,3.97
2022-08-16T08:54:06.834Z,3.38
2022-08-16T08:56:37.179Z,3.35
2022-08-16T08:59:13.192Z,3.10
2022-08-16T09:01:57.295Z,3.05
2022-08-16T09:04:26.023Z,3.47
2022-08-16T09:06:53.807Z,3.30
2022-08-16T09:09:21.423Z,3.30
2022-08-16T09:11:53.719Z,3.00
2022-08-16T09:14:32.136Z,3.50
2022-08-16T09:17:03.742Z,2.80
2022-08-16T09:19:40.882Z,2.92
2022-08-16T09:22:20.043Z,2.78
2022-08-16T09:24:51.883Z,3.25
2022-08-16T09:27:20.593Z,2.35
2022-08-16T09:29:47.403Z,3.15
2022-08-16T09:32:30.545Z,2.55
2022-08-16T09:34:58.618Z,2.42
2022-08-16T09:37:29.416Z,2.80
2022-08-16T09:39:59.690Z,2.40
2022-08-16T09:42:30.040Z,2.45
2022-08-16T09:45:13.145Z,2.78
2022-08-16T09:47:56.821Z,2.75
2022-08-16T09:50:36.945Z,3.08
2022-08-16T09:53:14.801Z,2.70
2022-08-16T09:55:44.929Z,2.60
2022-08-16T09:58:40.673Z,2.72
2022-08-16T10:01:11.078Z,2.50
2022-08-16T10:03:38.199Z,2.83
2022-08-16T10:06:25.621Z,2.88
2022-08-16T10:09:05.491Z,2.47
2022-08-16T10:11:55.805Z,2.72
2022-08-16T10:14:24.891Z,2.50
2022-08-16T10:17:04.942Z,2.92
2022-08-16T10:21:59.707Z,3.17
2022-08-16T10:24:32.743Z,2.60
2022-08-16T10:27:25.629Z,2.78
2022-08-16T10:30:00.576Z,2.63
2022-08-16T10:32:30.587Z,2.65
2022-08-16T10:34:59.235Z,2.70
2022-08-16T10:37:32.631Z,2.40
2022-08-16T10:40:06.462Z,2.65
2022-08-16T10:42:53.122Z,2.10
2022-08-16T10:45:20.421Z,2.47
2022-08-16T10:47:49.605Z,2.70
2022-08-16T10:50:30.172Z,2.40
2022-08-16T10:52:59.426Z,2.45
2022-08-16T10:55:44.612Z,2.65
2022-08-16T10:58:14.160Z,2.67
2022-08-16T11:00:44.047Z,2.83
2022-08-16T11:06:03.233Z,2.33
2022-08-16T11:08:36.169Z,2.50
2022-08-16T11:11:11.425Z,2.47
2022-08-16T11:17:02.928Z,2.17
2022-08-16T11:19:15.382Z,2.78
2022-08-16T11:24:41.452Z,2.78
2022-08-16T11:27:23.843Z,2.80
2022-08-16T11:29:54.878Z,2.92
2022-08-16T11:32:31.196Z,3.38
2022-08-16T11:35:16.276Z,3.08
2022-08-16T11:38:06.126Z,3.00
2022-08-16T11:40:40.864Z,2.90
2022-08-16T11:43:12.886Z,3.00
2022-08-16T11:45:43.523Z,3.20
2022-08-16T11:48:20.483Z,2.97
2022-08-16T11:50:47.823Z,2.70
2022-08-16T11:53:15.271Z,3.10
2022-08-16T11:55:44.049Z,3.00
2022-08-16T11:58:12.160Z,2.72
2022-08-16T12:00:51.572Z,2.72
2022-08-16T12:03:31.522Z,2.75
2022-08-16T12:06:10.620Z,3.20
2022-08-16T12:08:39.486Z,2.42
2022-08-16T12:11:09.745Z,2.83
2022-08-16T12:13:36.468Z,3.20
2022-08-16T12:16:04.437Z,2.78
2022-08-16T12:18:31.985Z,2.83
2022-08-16T12:20:58.685Z,2.88
2022-08-16T12:23:27.021Z,2.88
2022-08-16T12:25:53.869Z,3.05
2022-08-16T12:28:36.663Z,2.70
2022-08-16T12:31:07.978Z,3.10
2022-08-16T12:33:44.578Z,2.97
2022-08-16T12:36:13.973Z,2.58
2022-08-16T12:38:48.173Z,2.80
2022-08-16T12:41:24.291Z,2.95
2022-08-16T12:43:52.210Z,2.85
2022-08-16T12:46:19.179Z,2.80
2022-08-16T12:48:58.178Z,3.28
2022-08-16T12:51:58.949Z,3.17
2022-08-16T12:54:22.011Z,3.28
2022-08-16T12:56:50.370Z,2.92
2022-08-16T12:59:20.365Z,3.05
2022-08-16T13:01:50.638Z,3.38
2022-08-16T13:04:24.920Z,3.40
2022-08-16T13:06:52.943Z,3.80
2022-08-16T13:09:24.070Z,2.95
2022-08-16T13:12:15.459Z,3.00
2022-08-16T13:14:43.948Z,2.88
2022-08-16T13:17:19.711Z,2.95
2022-08-16T13:20:07.196Z,2.83
2022-08-16T13:22:42.109Z,3.20
2022-08-16T13:25:10.644Z,3.08
2022-08-16T13:28:14.856Z,2.83
2022-08-16T13:30:37.862Z,3.00
2022-08-16T13:33:12.332Z,2.88
2022-08-16T13:35:43.854Z,3.22
2022-08-16T13:38:24.237Z,2.80
2022-08-16T13:40:56.807Z,3.00
2022-08-16T13:43:29.164Z,3.35
2022-08-16T13:46:04.203Z,3.13
2022-08-16T13:48:43.045Z,3.38
2022-08-16T13:51:16.820Z,3.58
2022-08-16T13:53:45.783Z,2.80
2022-08-16T13:56:25.332Z,3.83
2022-08-16T13:58:54.295Z,3.55
2022-08-16T14:01:21.356Z,3.33
2022-08-16T14:03:48.166Z,3.30
2022-08-16T14:06:15.550Z,3.42
2022-08-16T14:08:58.953Z,3.50
2022-08-16T14:11:27.054Z,3.50
2022-08-16T14:13:55.914Z,3.25
2022-08-16T14:16:24.176Z,3.70
2022-08-16T14:18:57.095Z,3.45
2022-08-16T14:21:24.116Z,3.55
2022-08-16T14:23:52.153Z,3.63
2022-08-16T14:26:20.988Z,3.35
2022-08-16T14:28:50.289Z,3.50
2022-08-16T14:31:17.932Z,3.50
2022-08-16T14:33:45.436Z,3.30
2022-08-16T14:36:18.557Z,3.45
2022-08-16T14:38:51.863Z,3.05
2022-08-16T14:41:18.705Z,3.40
2022-08-16T14:43:45.335Z,3.72
2022-08-16T14:46:12.229Z,3.70
2022-08-16T14:48:39.016Z,3.60
2022-08-16T14:51:05.811Z,3.72
2022-08-16T14:53:33.276Z,3.55
2022-08-16T14:56:00.660Z,3.67
2022-08-16T14:58:35.101Z,3.13
2022-08-16T15:01:04.698Z,3.78
2022-08-16T15:03:32.935Z,3.35
2022-08-16T15:06:00.619Z,3.28
2022-08-16T15:08:36.121Z,3.10
2022-08-16T15:11:05.255Z,3.05
2022-08-16T15:13:32.097Z,2.60
2022-08-16T15:16:02.586Z,2.50
2022-08-16T15:18:31.824Z,2.30
2022-08-16T15:21:00.549Z,2.53
2022-08-16T15:23:28.325Z,2.40
2022-08-16T15:26:03.107Z,2.72
2022-08-16T15:28:32.715Z,2.70
2022-08-16T15:31:06.184Z,2.60
2022-08-16T15:33:42.102Z,2.70
2022-08-16T15:36:12.149Z,2.45
2022-08-16T15:39:04.964Z,2.70
2022-08-16T15:41:42.705Z,2.50
2022-08-16T15:44:22.125Z,2.83
2022-08-16T15:46:55.454Z,2.53
2022-08-16T15:49:25.114Z,2.72
2022-08-16T15:52:01.769Z,2.70
2022-08-16T15:54:32.488Z,3.05
2022-08-16T15:57:11.580Z,2.67
2022-08-16T15:59:49.326Z,2.72
2022-08-16T16:02:27.687Z,2.78
2022-08-16T16:04:57.213Z,2.80
2022-08-16T16:07:27.603Z,2.58
2022-08-16T16:09:58.778Z,2.78
2022-08-16T16:12:50.451Z,3.05
2022-08-16T16:15:16.908Z,2.72
2022-08-16T16:17:43.985Z,2.60
2022-08-16T16:20:18.179Z,2.95
2022-08-16T16:22:46.545Z,2.60
2022-08-16T16:25:15.904Z,2.88
2022-08-16T16:27:43.986Z,2.60
2022-08-16T16:30:37.676Z,2.55
2022-08-16T16:33:02.229Z,2.60
2022-08-16T16:35:32.952Z,2.38
2022-08-16T16:37:59.839Z,2.70
2022-08-16T16:40:32.829Z,2.63
2022-08-16T16:43:00.883Z,2.53
2022-08-16T16:45:34.768Z,2.60
2022-08-16T16:48:11.678Z,3.17
2022-08-16T16:53:17.709Z,3.40
2022-08-16T16:55:51.732Z,3.25
2022-08-16T16:58:43.446Z,2.85
2022-08-16T17:01:20.994Z,2.53
2022-08-16T17:04:13.187Z,3.20
2022-08-16T17:09:23.726Z,3.00
2022-08-16T17:11:55.143Z,2.80
2022-08-16T17:14:32.689Z,3.08
2022-08-16T17:17:07.060Z,3.03
2022-08-16T17:19:41.324Z,2.90
2022-08-16T17:22:15.138Z,2.70
2022-08-16T17:24:44.872Z,2.92
2022-08-16T17:27:18.146Z,3.08
2022-08-16T17:29:47.597Z,3.00
2022-08-16T17:32:47.064Z,2.90
2022-08-16T17:35:12.243Z,3.00
2022-08-16T17:37:51.025Z,2.67
2022-08-16T17:40:46.751Z,2.88
2022-08-16T17:43:19.131Z,3.08
2022-08-16T17:45:48.066Z,3.30
2022-08-16T17:48:14.964Z,2.95
2022-08-16T17:50:42.188Z,3.10
2022-08-16T17:53:09.990Z,3.10
2022-08-16T17:55:41.113Z,3.28
2022-08-16T17:58:22.629Z,3.35
2022-08-16T18:00:53.691Z,3.53
2022-08-16T18:04:02.882Z,3.20
2022-08-16T18:06:13.352Z,3.35
2022-08-16T18:08:41.398Z,3.05
2022-08-16T18:11:12.014Z,3.78
2022-08-16T18:13:42.771Z,3.88
2022-08-16T18:16:09.637Z,4.18
2022-08-16T18:18:36.320Z,3.70
2022-08-16T18:21:21.527Z,4.20
2022-08-16T18:23:48.184Z,3.60
2022-08-16T18:26:14.911Z,3.83
2022-08-16T18:28:41.638Z,3.33
2022-08-16T18:31:09.108Z,3.53
2022-08-16T18:33:43.326Z,3.75
2022-08-16T18:36:20.847Z,3.80
2022-08-16T18:38:49.336Z,3.97
2022-08-16T18:41:16.377Z,4.88
2022-08-16T18:43:59.169Z,3.53
2022-08-16T18:46:29.642Z,3.85
2022-08-16T18:48:56.550Z,4.65
2022-08-16T18:51:25.488Z,3.28
2022-08-16T18:53:52.765Z,3.80
2022-08-16T18:56:19.615Z,3.63
2022-08-16T18:58:46.265Z,3.40
2022-08-16T19:01:13.091Z,3.10
2022-08-16T19:03:39.808Z,3.78
2022-08-16T19:06:13.882Z,3.72
2022-08-16T19:08:43.600Z,3.58
2022-08-16T19:11:13.913Z,3.60
2022-08-16T19:13:43.942Z,3.17
2022-08-16T19:16:10.943Z,3.70
2022-08-16T19:18:37.695Z,3.42
2022-08-16T19:21:06.201Z,4.03
2022-08-16T19:23:35.844Z,3.88
2022-08-16T19:26:06.712Z,3.40
2022-08-16T19:28:51.246Z,3.58
2022-08-16T19:31:33.370Z,4.18
2022-08-16T19:34:00.851Z,3.50
2022-08-16T19:36:33.886Z,3.55
2022-08-16T19:39:06.616Z,4.20
2022-08-16T19:41:43.561Z,4.05
2022-08-16T19:44:10.500Z,3.97
2022-08-16T19:46:41.575Z,4.35
2022-08-16T19:49:08.233Z,4.15
2022-08-16T19:51:34.903Z,3.70
2022-08-16T19:54:01.556Z,4.30
2022-08-16T19:56:28.266Z,3.90
2022-08-16T20:01:43.656Z,3.30
2022-08-16T20:04:14.672Z,3.85
2022-08-16T20:06:42.183Z,3.88
2022-08-16T20:09:10.900Z,3.97
2022-08-16T20:11:39.419Z,3.50
2022-08-16T20:14:06.064Z,4.30
2022-08-16T20:16:32.750Z,4.10
2022-08-16T20:18:59.500Z,3.80
2022-08-16T20:21:26.133Z,4.40
2022-08-16T20:23:58.311Z,4.38
2022-08-16T20:26:36.952Z,4.57
2022-08-16T20:29:03.677Z,4.03
2022-08-16T20:31:30.335Z,4.40
2022-08-16T20:33:57.005Z,4.15
2022-08-16T20:36:24.455Z,4.22
2022-08-16T20:38:51.828Z,4.07
2022-08-16T20:41:18.791Z,3.85
2022-08-16T20:43:47.409Z,3.50
2022-08-16T20:46:14.593Z,3.90
2022-08-16T20:48:41.899Z,3.45
2022-08-16T20:51:10.626Z,3.92
2022-08-16T20:53:41.911Z,4.20
2022-08-16T20:56:09.982Z,4.13
2022-08-16T20:58:37.523Z,3.78
2022-08-16T21:01:05.747Z,3.90
2022-08-16T21:03:32.850Z,3.97
2022-08-16T21:06:02.132Z,3.72
2022-08-16T21:08:51.811Z,3.92
2022-08-16T21:11:16.443Z,4.10
2022-08-16T21:13:43.271Z,4.43
2022-08-16T21:16:10.175Z,4.35
2022-08-16T21:18:36.851Z,4.15
2022-08-16T21:21:03.711Z,5.07
2022-08-16T21:23:30.815Z,3.95
2022-08-16T21:25:58.865Z,3.95
2022-08-16T21:28:41.349Z,4.70
2022-08-16T21:31:15.603Z,4.47
2022-08-16T21:33:45.618Z,4.10
2022-08-16T21:36:35.276Z,4.13
2022-08-16T21:39:05.069Z,3.50
2022-08-16T21:41:31.959Z,4.20
2022-08-16T21:43:58.609Z,4.68
2022-08-16T21:46:25.337Z,4.07
2022-08-16T21:48:51.992Z,3.72
2022-08-16T21:51:18.626Z,4.57
2022-08-16T21:53:45.323Z,4.30
2022-08-16T21:56:16.807Z,3.80
2022-08-16T21:58:53.320Z,4.00
2022-08-16T22:01:22.834Z,3.60
2022-08-16T22:04:01.643Z,4.45
2022-08-16T22:06:38.673Z,4.32
2022-08-16T22:09:07.256Z,4.13
2022-08-16T22:11:34.311Z,4.45
2022-08-16T22:14:01.589Z,3.70
2022-08-16T22:16:36.738Z,3.95
2022-08-16T22:19:04.956Z,4.78
2022-08-16T22:21:33.081Z,4.80
2022-08-16T22:24:00.168Z,4.05
2022-08-16T22:26:29.853Z,4.28
2022-08-16T22:29:01.454Z,4.53
2022-08-16T22:31:28.752Z,5.30
2022-08-16T22:33:56.517Z,4.30
2022-08-16T22:36:23.958Z,4.25
2022-08-16T22:38:59.323Z,4.95
2022-08-16T22:41:28.374Z,5.10
2022-08-16T22:43:55.657Z,4.50
2022-08-16T22:46:22.307Z,4.50
2022-08-16T22:48:50.254Z,4.45
2022-08-16T22:51:18.622Z,4.63
2022-08-16T22:53:45.342Z,4.03
2022-08-16T22:56:12.097Z,4.72
2022-08-16T22:58:39.512Z,4.28
2022-08-16T23:01:08.026Z,4.15
2022-08-16T23:03:35.914Z,4.57
2022-08-16T23:06:03.663Z,4.28
2022-08-16T23:08:39.822Z,3.50
2022-08-16T23:11:14.984Z,4.60
2022-08-16T23:13:52.557Z,4.03
2022-08-16T23:16:32.831Z,4.75
2022-08-16T23:19:11.237Z,4.93
2022-08-16T23:21:40.702Z,4.50
2022-08-16T23:24:08.480Z,4.72
2022-08-16T23:26:44.926Z,3.95
2022-08-16T23:29:21.951Z,4.55
2022-08-16T23:31:52.721Z,4.30
2022-08-16T23:34:21.289Z,4.30
2022-08-16T23:36:48.038Z,5.40
2022-08-16T23:39:14.707Z,4.68
2022-08-16T23:41:41.425Z,4.60
2022-08-16T23:44:56.282Z,4.80
2022-08-16T23:46:55.494Z,4.97
2022-08-16T23:49:58.838Z,4.72
2022-08-16T23:52:10.367Z,4.50
2022-08-16T23:54:37.192Z,4.63
2022-08-16T23:57:04.134Z,4.35
2022-08-16T23:59:31.769Z,4.40
